Time;durP1;ratioP1;P1;durP2;ratioP2;P2;SDS_P1;SDS_P2;PMS_P1;PMS_P2;Temp;Humidity;BMP_temperature;BMP_pressure;BME280_temperature;BME280_humidity;BME280_pressure;Samples;Min_cycle;Max_cycle;Signal;HPM_P1;HPM_P2
2023/03/06 00:00:31;;;;;;;18.75;12.60;;;;;;;3.56;94.50;100799.25;5073150;28;20071;-39
2023/03/06 00:02:56;;;;;;;20.08;13.75;;;;;;;3.52;94.33;100795.41;5055215;28;20040;-39
2023/03/06 00:05:22;;;;;;;19.88;13.32;;;;;;;3.50;94.76;100789.38;5073240;28;20025;-39
2023/03/06 00:07:47;;;;;;;20.15;13.77;;;;;;;3.47;94.44;100787.16;5073006;28;20442;-39
2023/03/06 00:10:25;;;;;;;19.55;12.90;;;;;;;3.47;94.41;100782.50;5073172;28;20086;-39
2023/03/06 00:12:56;;;;;;;20.33;12.63;;;;;;;3.45;94.54;100784.69;5073037;28;20113;-40
2023/03/06 00:15:22;;;;;;;19.27;12.77;;;;;;;3.42;94.73;100782.44;5072950;28;20035;-39
2023/03/06 00:17:47;;;;;;;18.88;12.40;;;;;;;3.42;94.25;100782.44;5073095;28;20107;-39
2023/03/06 00:20:14;;;;;;;19.15;13.00;;;;;;;3.39;94.14;100778.34;5072924;28;20519;-39
2023/03/06 00:22:40;;;;;;;19.08;12.93;;;;;;;3.34;94.73;100780.19;5072910;28;20067;-39
2023/03/06 00:25:06;;;;;;;19.10;13.00;;;;;;;3.35;94.62;100774.50;5072516;28;20158;-40
2023/03/06 00:27:32;;;;;;;18.52;12.48;;;;;;;3.34;93.87;100785.66;5072428;28;20033;-39
2023/03/06 00:29:59;;;;;;;18.10;12.73;;;;;;;3.32;94.28;100776.88;5072595;28;20039;-39
2023/03/06 00:32:25;;;;;;;18.65;12.43;;;;;;;3.26;94.41;100765.91;5072654;28;20063;-39
2023/03/06 00:34:51;;;;;;;19.02;12.88;;;;;;;3.25;94.97;100769.72;5072729;28;20032;-39
2023/03/06 00:37:17;;;;;;;18.67;12.85;;;;;;;3.25;94.88;100763.44;5068517;28;20484;-39
2023/03/06 00:39:42;;;;;;;18.63;12.88;;;;;;;3.30;95.25;100763.47;5072505;28;20028;-40
2023/03/06 00:42:08;;;;;;;18.65;12.45;;;;;;;3.31;94.84;100767.88;5072452;28;20074;-39
2023/03/06 00:44:33;;;;;;;18.67;12.93;;;;;;;3.28;94.84;100755.56;5072412;28;20016;-39
2023/03/06 00:46:58;;;;;;;21.00;13.27;;;;;;;3.29;95.06;100753.63;5072445;28;20058;-40
2023/03/06 00:49:23;;;;;;;20.83;13.32;;;;;;;3.27;94.89;100753.06;5072307;28;20016;-39
2023/03/06 00:51:49;;;;;;;19.60;13.18;;;;;;;3.24;95.61;100738.00;5072398;28;20028;-39
2023/03/06 00:54:14;;;;;;;19.40;12.93;;;;;;;3.23;95.67;100741.00;5072369;28;20024;-39
2023/03/06 00:56:39;;;;;;;20.70;12.93;;;;;;;3.25;95.72;100736.91;5072241;28;20024;-39
2023/03/06 00:59:05;;;;;;;19.13;12.77;;;;;;;3.25;95.84;100747.03;5072336;28;20547;-39
2023/03/06 01:01:30;;;;;;;20.98;14.10;;;;;;;3.25;95.93;100747.03;5071855;28;20041;-39
2023/03/06 01:03:55;;;;;;;20.02;13.18;;;;;;;3.25;95.80;100744.31;5072154;28;20027;-39
2023/03/06 01:06:21;;;;;;;19.70;13.55;;;;;;;3.22;95.68;100739.34;5072085;28;20132;-39
2023/03/06 01:08:46;;;;;;;20.05;13.10;;;;;;;3.21;95.70;100746.72;5072131;28;20033;-38
2023/03/06 01:11:11;;;;;;;20.40;13.55;;;;;;;3.19;95.49;100735.22;5071816;28;20036;-40
2023/03/06 01:13:37;;;;;;;20.52;13.63;;;;;;;3.21;96.01;100741.25;5072126;28;20024;-39
2023/03/06 01:16:11;;;;;;;19.52;13.55;;;;;;;3.18;96.22;100728.13;5071828;28;20034;-39
2023/03/06 01:18:36;;;;;;;19.60;13.65;;;;;;;3.20;95.45;100733.31;5072050;28;20032;-39
2023/03/06 01:21:03;;;;;;;20.05;13.55;;;;;;;3.19;95.86;100732.50;5071884;28;20040;-39
2023/03/06 01:23:28;;;;;;;20.15;13.95;;;;;;;3.15;95.62;100725.88;5071800;28;20028;-39
2023/03/06 01:25:53;;;;;;;20.20;14.23;;;;;;;3.16;96.13;100726.72;5071835;28;20044;-39
2023/03/06 01:28:19;;;;;;;21.85;14.10;;;;;;;3.15;95.98;100734.09;5071904;28;20025;-39
2023/03/06 01:30:44;;;;;;;20.67;13.40;;;;;;;3.12;96.62;100724.50;5071748;28;20068;-39
2023/03/06 01:33:09;;;;;;;20.73;14.00;;;;;;;3.13;95.92;100728.06;5069923;28;20078;-39
2023/03/06 01:35:37;;;;;;;21.70;14.50;;;;;;;3.05;96.33;100720.31;5069319;28;20035;-39
2023/03/06 01:38:03;;;;;;;21.20;13.80;;;;;;;3.06;95.46;100731.03;5071248;28;20032;-39
2023/03/06 01:40:31;;;;;;;21.02;14.25;;;;;;;2.91;96.02;100707.09;5071735;28;20090;-39
2023/03/06 01:42:56;;;;;;;20.83;14.32;;;;;;;2.96;96.03;100715.34;5071660;28;20021;-39
2023/03/06 01:45:21;;;;;;;22.17;14.90;;;;;;;2.93;96.38;100721.31;5071604;28;20028;-39
2023/03/06 01:47:47;;;;;;;20.77;14.30;;;;;;;2.88;96.69;100720.44;5071568;28;20024;-39
2023/03/06 01:50:12;;;;;;;21.30;14.32;;;;;;;2.85;96.07;100710.03;5071624;28;20032;-40
2023/03/06 01:52:49;;;;;;;21.42;14.90;;;;;;;2.75;96.73;100695.19;5071344;28;20028;-39
2023/03/06 01:55:18;;;;;;;21.95;14.50;;;;;;;2.74;97.16;100695.44;5071673;28;20039;-40
2023/03/06 01:57:47;;;;;;;20.58;14.40;;;;;;;2.57;96.63;100670.94;5071589;28;20040;-39
2023/03/06 02:00:31;;;;;;;20.75;14.38;;;;;;;2.78;97.04;100699.28;5071254;28;20131;-39
2023/03/06 02:03:13;;;;;;;21.40;15.20;;;;;;;2.70;96.79;100697.03;5071563;28;20036;-40
2023/03/06 02:05:41;;;;;;;21.35;14.98;;;;;;;2.56;96.79;100680.22;5071539;28;20028;-39
2023/03/06 02:08:09;;;;;;;22.02;14.75;;;;;;;2.58;96.63;100680.78;5071648;28;20028;-40
2023/03/06 02:10:35;;;;;;;23.60;15.50;;;;;;;2.57;96.82;100679.16;5071376;28;20040;-39
2023/03/06 02:13:00;;;;;;;21.27;15.02;;;;;;;2.52;96.99;100682.66;5053291;28;20082;-39
2023/03/06 02:15:28;;;;;;;24.60;15.35;;;;;;;2.49;97.40;100669.50;5071296;28;20036;-41
2023/03/06 02:17:54;;;;;;;24.30;15.45;;;;;;;2.44;97.19;100675.72;5071641;28;20048;-40
2023/03/06 02:20:29;;;;;;;22.60;15.20;;;;;;;2.39;97.42;100658.47;5071425;28;20032;-39
2023/03/06 02:23:25;;;;;;;23.20;15.27;;;;;;;2.42;97.72;100677.06;5071408;28;20070;-39
2023/03/06 02:25:52;;;;;;;23.38;15.50;;;;;;;2.36;97.58;100675.38;5071450;28;20111;-39
2023/03/06 02:28:20;;;;;;;22.27;15.55;;;;;;;2.28;97.58;100669.25;5070852;28;20029;-39
2023/03/06 02:30:47;;;;;;;22.23;15.30;;;;;;;2.25;97.41;100661.59;5071096;28;20032;-40
2023/03/06 02:33:15;;;;;;;22.23;15.93;;;;;;;2.25;97.80;100663.47;5069933;28;20036;-40
2023/03/06 02:35:48;;;;;;;22.33;15.00;;;;;;;2.24;98.46;100657.22;5068352;28;20554;-40
2023/03/06 02:38:16;;;;;;;23.40;15.70;;;;;;;2.22;98.28;100653.09;5071435;28;20027;-39
2023/03/06 02:40:43;;;;;;;23.08;15.68;;;;;;;2.17;97.79;100664.78;5071242;28;20024;-39
2023/03/06 02:43:10;;;;;;;22.90;15.55;;;;;;;2.15;98.27;100661.47;5071156;28;20435;-40
2023/03/06 02:45:41;;;;;;;23.75;15.65;;;;;;;1.95;98.95;100626.56;5071230;28;20025;-39
2023/03/06 02:48:08;;;;;;;23.73;15.85;;;;;;;2.16;98.95;100663.13;5072479;28;20024;-39
2023/03/06 02:50:33;;;;;;;22.17;15.55;;;;;;;2.08;98.31;100650.75;5074700;28;20032;-39
2023/03/06 02:52:58;;;;;;;22.73;15.38;;;;;;;2.11;98.63;100654.84;5074788;28;20391;-40
2023/03/06 02:55:24;;;;;;;23.35;15.85;;;;;;;2.07;98.16;100656.47;5074476;28;20487;-39
2023/03/06 02:57:49;;;;;;;24.15;15.52;;;;;;;2.03;98.24;100656.97;5074618;28;20036;-39
2023/03/06 03:00:15;;;;;;;23.55;15.75;;;;;;;2.00;98.43;100654.72;5074370;28;20056;-39
2023/03/06 03:02:41;;;;;;;23.63;15.55;;;;;;;2.02;99.06;100646.31;5074669;28;20033;-39
2023/03/06 03:05:06;;;;;;;22.10;15.32;;;;;;;2.02;99.04;100652.56;5074655;28;20078;-39
2023/03/06 03:07:32;;;;;;;24.23;15.93;;;;;;;1.98;99.04;100650.59;5074350;28;20028;-39
2023/03/06 03:09:57;;;;;;;23.77;15.70;;;;;;;1.97;99.19;100646.22;5074322;28;20055;-39
2023/03/06 03:12:22;;;;;;;22.58;15.38;;;;;;;1.97;99.23;100640.78;5074415;28;20020;-39
2023/03/06 03:14:48;;;;;;;23.73;15.73;;;;;;;1.94;99.37;100638.53;5074362;28;20492;-39
2023/03/06 03:17:13;;;;;;;23.38;15.45;;;;;;;1.93;98.85;100632.28;5074121;28;20028;-39
2023/03/06 03:19:39;;;;;;;23.38;15.32;;;;;;;1.90;98.48;100635.50;5074160;28;20036;-39
2023/03/06 03:22:04;;;;;;;22.75;16.10;;;;;;;1.88;99.07;100629.50;5074106;28;20554;-39
2023/03/06 03:24:29;;;;;;;21.92;15.57;;;;;;;1.87;98.84;100622.38;5073996;28;20501;-39
2023/03/06 03:26:55;;;;;;;24.73;16.30;;;;;;;1.83;99.49;100618.50;5074088;28;20035;-39
2023/03/06 03:29:20;;;;;;;23.42;16.00;;;;;;;1.84;99.63;100623.69;5074015;28;20024;-40
2023/03/06 03:31:45;;;;;;;22.88;15.48;;;;;;;1.80;99.44;100611.66;5073767;28;20028;-42
2023/03/06 03:34:11;;;;;;;22.85;16.40;;;;;;;1.81;98.70;100618.75;5073623;28;20048;-39
2023/03/06 03:36:36;;;;;;;23.17;15.45;;;;;;;1.79;99.03;100610.00;5051934;28;20123;-39
2023/03/06 03:39:02;;;;;;;23.25;16.10;;;;;;;1.77;98.98;100600.44;5073721;28;20043;-40
2023/03/06 03:41:28;;;;;;;23.60;16.00;;;;;;;1.75;98.80;100597.13;5073948;28;20089;-39
2023/03/06 03:43:53;;;;;;;23.35;15.75;;;;;;;1.73;98.99;100586.47;5073759;28;20484;-39
2023/03/06 03:46:20;;;;;;;22.25;15.82;;;;;;;1.67;99.71;100580.13;5073754;28;20043;-39
2023/03/06 03:48:45;;;;;;;22.20;15.05;;;;;;;1.70;99.45;100589.69;5073611;28;20025;-39
2023/03/06 03:51:12;;;;;;;23.10;15.57;;;;;;;1.67;99.38;100585.59;5073539;28;20032;-39
2023/03/06 03:53:38;;;;;;;23.55;16.42;;;;;;;1.64;99.17;100577.91;5073447;28;20038;-40
2023/03/06 03:56:04;;;;;;;24.25;16.23;;;;;;;1.63;99.15;100578.97;5073252;28;20033;-39
2023/03/06 03:58:29;;;;;;;23.52;15.70;;;;;;;1.61;100.00;100578.38;5073329;28;20449;-40
2023/03/06 04:00:55;;;;;;;23.55;15.82;;;;;;;1.61;99.36;100583.84;5072745;28;20052;-39
2023/03/06 04:03:20;;;;;;;23.50;16.15;;;;;;;1.63;100.00;100578.16;5073260;28;20028;-39
2023/03/06 04:05:46;;;;;;;23.33;15.98;;;;;;;1.63;99.46;100578.16;5073195;28;20463;-39
2023/03/06 04:08:11;;;;;;;22.60;15.90;;;;;;;1.64;100.00;100579.81;5073012;28;20036;-39
2023/03/06 04:10:38;;;;;;;24.25;16.13;;;;;;;1.62;99.92;100577.31;5073190;28;20048;-39
2023/03/06 04:13:03;;;;;;;23.83;16.17;;;;;;;1.59;100.00;100577.84;5073365;28;20115;-40
2023/03/06 04:15:29;;;;;;;23.63;16.15;;;;;;;1.55;100.00;100563.06;5073264;28;20043;-39
2023/03/06 04:17:55;;;;;;;22.48;15.27;;;;;;;1.60;100.00;100570.47;5073161;28;20033;-39
2023/03/06 04:20:20;;;;;;;22.42;15.38;;;;;;;1.60;100.00;100574.03;5073140;28;20032;-39
2023/03/06 04:22:45;;;;;;;22.55;15.20;;;;;;;1.60;100.00;100567.75;5072874;28;20501;-39
2023/03/06 04:25:11;;;;;;;23.80;15.65;;;;;;;1.61;100.00;100570.22;5072999;28;20032;-39
2023/03/06 04:27:36;;;;;;;23.27;15.48;;;;;;;1.59;100.00;100550.56;5072778;28;20472;-39
2023/03/06 04:30:02;;;;;;;22.33;15.52;;;;;;;1.64;100.00;100558.00;5072730;28;20029;-39
2023/03/06 04:32:27;;;;;;;22.52;15.80;;;;;;;1.65;100.00;100560.47;5072918;28;20373;-39
2023/03/06 04:34:53;;;;;;;22.98;15.98;;;;;;;1.66;100.00;100559.38;5054755;28;20472;-38
2023/03/06 04:37:20;;;;;;;23.98;16.05;;;;;;;1.69;100.00;100561.63;5068667;28;20060;-38
2023/03/06 04:39:46;;;;;;;24.48;15.95;;;;;;;1.66;100.00;100553.09;5072652;28;20029;-39
2023/03/06 04:42:11;;;;;;;24.08;16.35;;;;;;;1.66;100.00;100551.19;5072319;28;20082;-39
2023/03/06 04:44:37;;;;;;;24.63;16.60;;;;;;;1.68;100.00;100559.97;5072595;28;20036;-40
2023/03/06 04:47:02;;;;;;;25.27;17.55;;;;;;;1.69;100.00;100558.88;5072376;28;20468;-38
2023/03/06 04:49:27;;;;;;;25.55;16.63;;;;;;;1.66;100.00;100553.09;5072384;28;20056;-38
2023/03/06 04:51:52;;;;;;;25.98;17.13;;;;;;;1.69;100.00;100547.13;5072084;28;20025;-39
2023/03/06 04:54:18;;;;;;;25.38;17.13;;;;;;;1.75;100.00;100548.03;5072207;28;20077;-38
2023/03/06 04:56:43;;;;;;;25.20;16.88;;;;;;;1.75;100.00;100545.28;5072166;28;20464;-38
2023/03/06 04:59:08;;;;;;;26.20;17.65;;;;;;;1.76;100.00;100544.22;5072271;28;20036;-39
2023/03/06 05:01:34;;;;;;;26.73;17.88;;;;;;;1.76;100.00;100545.03;5072055;28;20119;-39
2023/03/06 05:03:59;;;;;;;26.17;17.10;;;;;;;1.75;100.00;100542.56;5072354;28;20107;-39
2023/03/06 05:06:25;;;;;;;26.67;17.88;;;;;;;1.71;100.00;100529.44;5072163;28;20029;-38
2023/03/06 05:08:50;;;;;;;25.50;17.65;;;;;;;1.77;100.00;100543.16;5072091;28;20025;-38
2023/03/06 05:11:15;;;;;;;27.73;18.40;;;;;;;1.76;100.00;100536.84;5071492;28;20036;-38
2023/03/06 05:13:41;;;;;;;26.60;17.25;;;;;;;1.77;100.00;100538.50;5071988;28;20031;-39
2023/03/06 05:16:07;;;;;;;27.17;17.75;;;;;;;1.62;100.00;100508.34;5071948;28;20755;-39
2023/03/06 05:18:33;;;;;;;27.15;18.13;;;;;;;1.78;100.00;100531.97;5071843;28;20537;-39
2023/03/06 05:20:58;;;;;;;26.30;17.92;;;;;;;1.79;100.00;100522.72;5071847;28;20396;-39
2023/03/06 05:23:28;;;;;;;28.42;18.20;;;;;;;1.81;100.00;100525.19;5071934;28;20037;-39
2023/03/06 05:25:53;;;;;;;27.27;18.05;;;;;;;1.82;100.00;100522.22;5071942;28;20059;-39
2023/03/06 05:28:19;;;;;;;28.67;18.35;;;;;;;1.81;100.00;100528.75;5071967;28;20056;-39
2023/03/06 05:30:44;;;;;;;28.73;18.77;;;;;;;1.82;100.00;100527.66;5071842;28;20048;-39
2023/03/06 05:33:10;;;;;;;27.90;19.00;;;;;;;1.81;100.00;100536.09;5071761;28;20028;-38
2023/03/06 05:35:35;;;;;;;28.65;18.77;;;;;;;1.82;100.00;100519.50;5071705;28;20025;-38
2023/03/06 05:38:00;;;;;;;27.30;18.48;;;;;;;1.83;100.00;100518.41;5068276;28;20346;-38
2023/03/06 05:40:26;;;;;;;29.58;19.60;;;;;;;1.86;100.00;100522.53;5071827;28;20025;-38
2023/03/06 05:42:51;;;;;;;30.65;19.13;;;;;;;1.85;100.00;100515.41;5071788;28;20081;-38
2023/03/06 05:45:17;;;;;;;29.30;19.17;;;;;;;1.86;100.00;100523.34;5071645;28;20025;-39
2023/03/06 05:47:42;;;;;;;29.50;19.50;;;;;;;1.88;100.00;100520.38;5071564;28;20075;-38
2023/03/06 05:50:09;;;;;;;29.40;19.77;;;;;;;1.88;100.00;100514.91;5071202;28;20399;-38
2023/03/06 05:52:35;;;;;;;31.98;19.50;;;;;;;1.91;100.00;100508.13;5071737;28;20480;-38
2023/03/06 05:55:00;;;;;;;29.27;19.58;;;;;;;1.88;100.00;100506.72;5071662;28;20158;-38
2023/03/06 05:57:26;;;;;;;29.70;19.85;;;;;;;1.90;100.00;100506.47;5071613;28;20115;-38
2023/03/06 05:59:51;;;;;;;31.30;21.52;;;;;;;1.91;100.00;100514.38;5053634;28;20289;-41
2023/03/06 06:02:17;;;;;;;31.23;21.65;;;;;;;1.90;100.00;100514.66;5051510;28;20384;-39
2023/03/06 06:04:42;;;;;;;32.75;20.88;;;;;;;1.91;100.00;100516.31;5051636;28;20385;-39
2023/03/06 06:07:12;;;;;;;32.08;20.90;;;;;;;1.89;100.00;100507.53;5051500;28;20056;-38
2023/03/06 06:09:37;;;;;;;31.75;20.60;;;;;;;1.89;100.00;100505.63;5051710;28;20033;-38
2023/03/06 06:12:03;;;;;;;32.40;20.75;;;;;;;1.95;100.00;100512.81;5051576;28;20101;-38
2023/03/06 06:14:29;;;;;;;31.77;20.75;;;;;;;1.93;100.00;100508.69;5051511;28;20163;-38
2023/03/06 06:16:55;;;;;;;30.33;20.65;;;;;;;1.97;100.00;100513.38;5051081;28;20055;-39
2023/03/06 06:19:21;;;;;;;31.38;21.38;;;;;;;1.98;100.00;100511.47;5051347;28;20028;-39
2023/03/06 06:21:52;;;;;;;33.05;21.17;;;;;;;1.92;100.00;100504.31;5051445;28;20025;-39
2023/03/06 06:24:21;;;;;;;32.53;20.58;;;;;;;1.98;100.00;100511.47;5054585;28;20218;-39
2023/03/06 06:26:52;;;;;;;31.10;20.48;;;;;;;1.98;100.00;100504.13;5055318;28;20060;-39
2023/03/06 06:29:18;;;;;;;31.80;20.17;;;;;;;2.09;100.00;100510.50;5037359;28;20036;-39
2023/03/06 06:31:44;;;;;;;31.42;20.67;;;;;;;2.13;100.00;100508.06;5052744;28;20029;-38
2023/03/06 06:34:11;;;;;;;34.00;21.77;;;;;;;2.12;100.00;100503.69;5053651;28;20083;-38
2023/03/06 06:36:37;;;;;;;32.80;21.38;;;;;;;2.13;100.00;100510.78;5055057;28;20039;-38
2023/03/06 06:39:03;;;;;;;30.35;19.95;;;;;;;2.12;100.00;100506.41;5055207;28;20043;-41
2023/03/06 06:41:29;;;;;;;32.40;20.85;;;;;;;2.16;100.00;100504.81;5055191;28;20059;-38
2023/03/06 06:43:55;;;;;;;31.77;19.80;;;;;;;2.20;100.00;100503.22;5055064;28;20461;-38
2023/03/06 06:46:20;;;;;;;32.15;20.75;;;;;;;2.27;100.00;100500.28;5054479;28;20079;-38
2023/03/06 06:48:51;;;;;;;30.38;19.73;;;;;;;2.31;100.00;100495.97;5054741;28;20567;-39
2023/03/06 06:51:16;;;;;;;30.55;19.83;;;;;;;2.31;100.00;100498.69;5054972;28;20021;-39
2023/03/06 06:53:42;;;;;;;31.60;20.80;;;;;;;2.34;100.00;100500.88;5054746;28;20099;-39
2023/03/06 06:56:07;;;;;;;30.90;20.35;;;;;;;2.37;100.00;100505.00;5054639;28;20432;-38
2023/03/06 06:58:32;;;;;;;32.97;20.25;;;;;;;2.38;100.00;100503.91;5054592;28;20055;-38
2023/03/06 07:01:07;;;;;;;31.75;20.42;;;;;;;2.43;100.00;100506.69;5054565;28;20053;-39
2023/03/06 07:03:32;;;;;;;31.15;21.08;;;;;;;2.51;100.00;100508.94;5054541;28;20028;-39
2023/03/06 07:05:58;;;;;;;30.88;21.20;;;;;;;2.63;100.00;100508.78;5054560;28;20033;-39
2023/03/06 07:08:23;;;;;;;30.75;20.15;;;;;;;2.75;100.00;100514.03;5054368;28;20029;-38
2023/03/06 07:10:49;;;;;;;31.20;20.38;;;;;;;2.87;100.00;100519.34;5055097;28;20357;-38
2023/03/06 07:13:14;;;;;;;30.88;20.10;;;;;;;2.98;100.00;100512.84;5054577;28;20106;-38
2023/03/06 07:15:39;;;;;;;32.22;21.55;;;;;;;3.05;100.00;100510.72;5054362;28;20017;-38
2023/03/06 07:18:04;;;;;;;30.15;20.70;;;;;;;3.10;99.58;100515.38;5054169;28;20033;-39
2023/03/06 07:20:30;;;;;;;31.50;20.70;;;;;;;3.15;99.50;100509.94;5053303;28;20017;-39
2023/03/06 07:22:56;;;;;;;32.97;20.63;;;;;;;3.16;98.62;100519.78;5034975;28;20033;-38
2023/03/06 07:25:21;;;;;;;31.02;20.10;;;;;;;3.15;98.28;100518.13;5052419;28;20021;-39
2023/03/06 07:27:47;;;;;;;30.40;20.83;;;;;;;3.15;98.35;100520.06;5051847;28;20029;-39
2023/03/06 07:30:12;;;;;;;31.45;21.25;;;;;;;3.18;98.63;100514.88;5052118;28;20048;-39
2023/03/06 07:32:38;;;;;;;31.45;21.35;;;;;;;3.21;98.06;100527.19;5050941;28;20044;-45
2023/03/06 07:35:03;;;;;;;30.23;19.90;;;;;;;3.18;97.93;100524.97;5050626;28;20036;-38
2023/03/06 07:37:29;;;;;;;30.40;20.25;;;;;;;3.20;97.82;100523.66;5052178;28;20417;-39
2023/03/06 07:39:54;;;;;;;32.53;21.35;;;;;;;3.19;97.80;100524.75;5052273;28;20535;-39
2023/03/06 07:42:19;;;;;;;33.45;20.88;;;;;;;3.20;98.28;100520.91;5052618;28;20033;-38
2023/03/06 07:44:45;;;;;;;32.17;20.10;;;;;;;3.24;98.20;100527.50;5052798;28;20497;-38
2023/03/06 07:47:11;;;;;;;30.17;20.33;;;;;;;3.20;98.23;100523.66;5052566;28;20562;-38
2023/03/06 07:49:37;;;;;;;34.10;20.50;;;;;;;3.25;98.36;100526.41;5051066;28;20036;-38
2023/03/06 07:52:02;;;;;;;30.23;20.25;;;;;;;3.33;98.12;100530.56;5052170;28;20385;-39
2023/03/06 07:54:29;;;;;;;30.45;20.98;;;;;;;3.33;97.88;100521.50;5052336;28;20504;-38
2023/03/06 07:56:55;;;;;;;32.28;21.23;;;;;;;3.39;98.85;100531.41;5052154;28;20125;-38
2023/03/06 07:59:21;;;;;;;32.33;20.95;;;;;;;3.38;98.45;100525.09;5052080;28;20040;-39
2023/03/06 08:01:46;;;;;;;30.88;20.52;;;;;;;3.54;99.32;100526.00;5052118;28;20088;-38
2023/03/06 08:04:11;;;;;;;29.92;20.63;;;;;;;3.60;98.59;100526.84;5051633;28;20029;-39
2023/03/06 08:06:37;;;;;;;33.05;20.90;;;;;;;3.64;98.65;100527.13;5051949;28;20484;-38
2023/03/06 08:09:02;;;;;;;31.02;20.48;;;;;;;3.65;98.36;100523.31;5052093;28;20035;-38
2023/03/06 08:11:29;;;;;;;32.47;20.90;;;;;;;3.68;98.65;100523.59;5051941;28;20033;-40
2023/03/06 08:13:56;;;;;;;32.35;22.08;;;;;;;3.72;98.60;100519.25;5051218;28;20512;-39
2023/03/06 08:16:23;;;;;;;32.63;21.52;;;;;;;3.72;98.74;100512.94;5050993;28;20029;-38
2023/03/06 08:18:49;;;;;;;31.63;21.33;;;;;;;3.82;98.22;100518.44;5057353;28;20090;-39
2023/03/06 08:21:17;;;;;;;31.52;21.05;;;;;;;3.88;98.64;100525.56;5071976;28;20033;-38
2023/03/06 08:23:43;;;;;;;31.05;20.70;;;;;;;3.87;98.03;100521.19;5055919;28;20039;-39
2023/03/06 08:26:30;;;;;;;32.00;22.08;;;;;;;3.95;98.04;100530.78;5052170;28;20388;-39
2023/03/06 08:28:58;;;;;;;35.55;22.85;;;;;;;3.95;98.15;100525.31;5052038;28;20032;-38
2023/03/06 08:31:28;;;;;;;32.30;20.90;;;;;;;3.99;98.19;100533.81;5033673;28;20020;-38
2023/03/06 08:33:55;;;;;;;32.20;21.33;;;;;;;3.98;97.91;100529.41;5051914;28;20036;-40
2023/03/06 08:36:21;;;;;;;31.95;20.88;;;;;;;4.06;98.26;100539.88;5051702;28;20033;-38
2023/03/06 08:38:46;;;;;;;33.67;21.83;;;;;;;4.10;98.14;100537.41;5051243;28;20024;-38
2023/03/06 08:41:12;;;;;;;32.15;20.92;;;;;;;4.11;98.23;100536.31;5050795;28;20021;-38
2023/03/06 08:43:38;;;;;;;31.73;21.77;;;;;;;4.16;97.04;100534.41;5051409;28;20052;-39
2023/03/06 08:46:03;;;;;;;29.00;19.23;;;;;;;4.21;97.75;100537.16;5033301;28;20036;-40
2023/03/06 08:48:28;;;;;;;32.17;20.98;;;;;;;4.24;96.71;100540.44;5050048;28;20072;-39
2023/03/06 08:50:54;;;;;;;30.58;19.42;;;;;;;4.35;98.11;100526.50;5051287;28;20025;-39
2023/03/06 08:53:19;;;;;;;28.63;19.60;;;;;;;4.40;96.65;100541.28;5051064;28;20032;-39
2023/03/06 08:55:45;;;;;;;29.55;19.85;;;;;;;4.51;95.22;100527.34;5050897;28;20040;-39
2023/03/06 08:58:11;;;;;;;29.40;19.00;;;;;;;4.47;94.16;100511.72;5051190;28;20074;-38
2023/03/06 09:00:37;;;;;;;28.40;18.27;;;;;;;4.68;93.89;100521.56;5050793;28;20136;-38
2023/03/06 09:03:03;;;;;;;27.80;19.02;;;;;;;4.88;93.38;100530.06;5050996;28;20033;-39
2023/03/06 09:05:28;;;;;;;28.10;18.13;;;;;;;5.00;92.59;100523.19;5051053;28;20036;-39
2023/03/06 09:07:54;;;;;;;25.50;17.70;;;;;;;5.03;91.23;100523.75;5032944;28;20079;-38
2023/03/06 09:10:22;;;;;;;26.38;17.30;;;;;;;5.02;92.10;100522.09;5050844;28;20108;-39
2023/03/06 09:12:48;;;;;;;22.48;15.20;;;;;;;5.52;94.26;100519.50;5050739;28;20111;-38
2023/03/06 09:15:15;;;;;;;26.75;18.38;;;;;;;6.03;90.13;100533.03;5050773;28;20368;-39
2023/03/06 09:17:40;;;;;;;25.40;16.00;;;;;;;6.28;86.13;100531.22;5050597;28;20064;-38
2023/03/06 09:20:07;;;;;;;23.60;15.60;;;;;;;6.25;86.03;100518.03;5050722;28;20067;-39
2023/03/06 09:22:33;;;;;;;25.20;16.70;;;;;;;6.44;84.75;100531.94;5050732;28;20543;-39
2023/03/06 09:24:59;;;;;;;27.08;17.60;;;;;;;6.40;84.11;100533.59;5050702;28;20029;-38
2023/03/06 09:27:27;;;;;;;25.80;17.30;;;;;;;6.21;84.25;100528.78;5050698;28;20078;-39
2023/03/06 09:29:52;;;;;;;26.55;17.10;;;;;;;6.35;85.43;100528.16;5050715;28;20032;-38
2023/03/06 09:32:18;;;;;;;25.13;17.05;;;;;;;6.23;83.64;100534.81;5050553;28;20101;-39
2023/03/06 09:34:43;;;;;;;25.65;17.60;;;;;;;6.04;84.17;100534.66;5050404;28;20033;-39
2023/03/06 09:37:08;;;;;;;25.65;16.20;;;;;;;5.87;83.76;100532.25;5050392;28;20045;-39
2023/03/06 09:39:34;;;;;;;25.45;16.65;;;;;;;5.74;85.38;100536.44;5050321;28;20497;-39
2023/03/06 09:41:59;;;;;;;22.98;16.40;;;;;;;5.73;85.09;100533.94;5050407;28;20044;-39
2023/03/06 09:44:28;;;;;;;24.00;15.90;;;;;;;5.69;85.01;100535.63;5050454;28;20483;-39
2023/03/06 09:46:59;;;;;;;22.70;15.60;;;;;;;5.76;85.28;100534.19;5050352;28;20029;-39
2023/03/06 09:49:36;;;;;;;22.45;14.82;;;;;;;5.81;84.10;100527.06;5049047;28;20653;-39
2023/03/06 09:52:28;;;;;;;22.63;14.60;;;;;;;5.88;85.49;100530.31;5050316;28;20032;-39
2023/03/06 09:54:57;;;;;;;23.20;14.82;;;;;;;5.84;83.63;100532.00;5039923;28;20048;-40
2023/03/06 09:57:30;;;;;;;21.52;14.88;;;;;;;5.79;83.95;100532.84;5050271;28;20086;-38
2023/03/06 09:59:59;;;;;;;20.13;13.93;;;;;;;5.69;83.58;100511.72;5036329;28;20036;-39
2023/03/06 10:02:48;;;;;;;21.95;14.18;;;;;;;5.97;82.36;100536.03;5054501;28;20039;-39
2023/03/06 10:05:20;;;;;;;23.23;14.57;;;;;;;6.00;81.80;100528.09;5054534;28;20460;-39
2023/03/06 10:07:55;;;;;;;22.25;14.68;;;;;;;6.02;82.50;100533.28;5054588;28;20029;-39
2023/03/06 10:10:24;;;;;;;22.10;14.80;;;;;;;6.03;81.38;100527.53;5054547;28;20036;-39
2023/03/06 10:13:01;;;;;;;21.13;14.23;;;;;;;6.07;81.73;100523.09;5054627;28;20031;-39
2023/03/06 10:15:32;;;;;;;22.35;13.77;;;;;;;6.03;80.52;100516.53;5054487;28;20040;-39
2023/03/06 10:17:57;;;;;;;20.92;13.80;;;;;;;6.08;79.89;100522.00;5054569;28;20027;-39
2023/03/06 10:20:32;;;;;;;20.52;13.52;;;;;;;6.06;80.59;100529.69;5054247;28;20115;-38
2023/03/06 10:23:20;;;;;;;20.27;13.82;;;;;;;6.06;80.56;100528.88;5053965;28;20033;-39
2023/03/06 10:25:58;;;;;;;21.73;13.23;;;;;;;6.04;79.66;100528.34;5054231;28;20108;-41
2023/03/06 10:28:32;;;;;;;21.27;13.68;;;;;;;6.01;79.69;100517.91;5053818;28;20404;-39
2023/03/06 10:31:26;;;;;;;21.60;14.30;;;;;;;6.06;79.69;100532.44;5053877;28;20032;-39
2023/03/06 10:33:54;;;;;;;20.80;13.98;;;;;;;6.08;80.62;100524.75;5036630;28;20041;-38
2023/03/06 10:36:21;;;;;;;20.67;13.82;;;;;;;6.11;81.14;100525.28;5053901;28;20028;-39
2023/03/06 10:38:47;;;;;;;22.45;14.57;;;;;;;6.15;81.16;100524.44;5053851;28;20072;-39
2023/03/06 10:41:12;;;;;;;22.05;15.23;;;;;;;6.17;81.90;100514.00;5053740;28;20033;-39
2023/03/06 10:43:40;;;;;;;22.20;14.70;;;;;;;6.26;81.02;100510.63;5053509;28;20185;-39
2023/03/06 10:46:08;;;;;;;24.52;17.17;;;;;;;6.30;82.19;100512.53;5053550;28;20116;-39
2023/03/06 10:48:35;;;;;;;24.15;17.00;;;;;;;6.34;82.17;100510.03;5052411;28;20036;-39
2023/03/06 10:51:10;;;;;;;23.60;16.83;;;;;;;6.35;81.74;100517.97;5053358;28;20040;-39
2023/03/06 10:53:35;;;;;;;25.90;17.75;;;;;;;6.38;83.26;100505.56;5053290;28;20469;-39
2023/03/06 10:56:01;;;;;;;24.73;16.27;;;;;;;6.46;83.11;100512.41;5053348;28;20033;-39
2023/03/06 10:58:29;;;;;;;25.23;17.63;;;;;;;6.52;83.00;100516.75;5053277;28;20074;-40
2023/03/06 11:01:19;;;;;;;24.08;16.85;;;;;;;6.58;81.30;100515.59;5053098;28;20048;-40
2023/03/06 11:03:45;;;;;;;24.35;16.65;;;;;;;6.58;79.72;100523.84;5053461;28;20037;-39
2023/03/06 11:06:13;;;;;;;22.80;15.32;;;;;;;6.48;79.81;100511.00;5053121;28;20095;-39
2023/03/06 11:08:41;;;;;;;22.67;15.32;;;;;;;6.64;79.30;100519.94;5052602;28;20040;-39
2023/03/06 11:11:13;;;;;;;23.60;16.23;;;;;;;6.65;78.73;100512.53;5051503;28;20042;-39
2023/03/06 11:13:41;;;;;;;22.98;16.42;;;;;;;6.66;79.02;100515.00;5052321;28;20072;-39